createdAt,value
2018-11-01T00:01:59.844Z,6.53
2018-11-01T00:04:27.809Z,5.70
2018-11-01T00:06:55.832Z,5.20
2018-11-01T00:09:24.255Z,4.23
2018-11-01T00:11:56.484Z,5.13
2018-11-01T00:14:24.796Z,5.50
2018-11-01T00:16:52.703Z,6.60
2018-11-01T00:19:20.376Z,7.00
2018-11-01T00:21:48.205Z,8.17
2018-11-01T00:24:16.141Z,7.60
2018-11-01T00:26:44.339Z,7.37
2018-11-01T00:29:12.777Z,5.30
2018-11-01T00:31:40.533Z,4.50
2018-11-01T00:34:08.417Z,6.67
2018-11-01T00:36:36.359Z,4.30
2018-11-01T00:39:07.377Z,5.67
2018-11-01T00:41:35.158Z,5.53
2018-11-01T00:44:02.911Z,5.93
2018-11-01T00:46:31.198Z,5.90
2018-11-01T00:48:59.063Z,5.30
2018-11-01T00:51:26.887Z,5.17
2018-11-01T00:53:54.890Z,4.93
2018-11-01T00:56:22.902Z,5.37
2018-11-01T00:58:50.874Z,5.60
2018-11-01T01:01:18.580Z,5.00
2018-11-01T01:03:46.392Z,5.53
2018-11-01T01:06:14.060Z,5.60
2018-11-01T01:08:41.788Z,5.00
2018-11-01T01:11:10.123Z,5.10
2018-11-01T01:13:37.988Z,5.10
2018-11-01T01:16:06.326Z,5.10
2018-11-01T01:18:34.205Z,4.03
2018-11-01T01:21:01.860Z,4.10
2018-11-01T01:23:29.632Z,5.53
2018-11-01T01:25:57.956Z,4.30
2018-11-01T01:28:25.880Z,5.40
2018-11-01T01:30:54.587Z,5.43
2018-11-01T01:33:22.248Z,5.63
2018-11-01T01:35:50.181Z,5.97
2018-11-01T01:38:18.012Z,7.07
2018-11-01T01:40:45.716Z,6.10
2018-11-01T01:43:13.418Z,7.47
2018-11-01T01:45:41.069Z,6.10
2018-11-01T01:48:09.118Z,6.17
2018-11-01T01:50:36.848Z,4.97
2018-11-01T01:53:05.571Z,5.33
2018-11-01T01:55:33.285Z,6.10
2018-11-01T01:58:01.172Z,6.20
2018-11-01T02:00:29.670Z,5.20
2018-11-01T02:02:57.386Z,5.83
2018-11-01T02:05:25.549Z,6.03
2018-11-01T02:07:53.374Z,6.60
2018-11-01T02:10:21.411Z,6.10
2018-11-01T02:12:49.090Z,6.50
2018-11-01T02:15:18.209Z,6.10
2018-11-01T02:17:46.511Z,5.90
2018-11-01T02:20:15.612Z,6.87
2018-11-01T02:22:44.982Z,6.23
2018-11-01T02:25:12.940Z,5.17
2018-11-01T02:27:46.775Z,5.90
2018-11-01T02:30:15.763Z,5.30
2018-11-01T02:32:44.396Z,4.27
2018-11-01T02:35:14.595Z,4.30
2018-11-01T02:37:43.153Z,4.73
2018-11-01T02:40:11.631Z,4.03
2018-11-01T02:42:40.351Z,4.80
2018-11-01T02:45:09.323Z,3.67
2018-11-01T02:47:37.400Z,3.33
2018-11-01T02:50:05.960Z,3.50
2018-11-01T02:52:33.707Z,3.20
2018-11-01T02:55:02.043Z,3.47
2018-11-01T02:57:29.900Z,4.40
2018-11-01T02:59:57.661Z,4.90
2018-11-01T03:02:25.376Z,3.00
2018-11-01T03:04:53.296Z,4.40
2018-11-01T03:07:22.012Z,4.30
2018-11-01T03:09:49.689Z,4.43
2018-11-01T03:12:17.498Z,4.80
2018-11-01T03:14:46.396Z,5.53
2018-11-01T03:17:14.224Z,5.80
2018-11-01T03:19:42.851Z,5.30
2018-11-01T03:22:10.818Z,4.90
2018-11-01T03:24:38.524Z,4.60
2018-11-01T03:27:06.557Z,5.17
2018-11-01T03:29:34.234Z,4.77
2018-11-01T03:32:02.984Z,3.93
2018-11-01T03:34:30.812Z,5.40
2018-11-01T03:36:58.461Z,4.60
2018-11-01T03:39:26.238Z,5.47
2018-11-01T03:41:54.159Z,5.00
2018-11-01T03:44:21.907Z,4.57
2018-11-01T03:46:49.708Z,5.07
2018-11-01T03:49:17.514Z,4.37
2018-11-01T03:51:45.259Z,4.10
2018-11-01T03:54:13.225Z,4.23
2018-11-01T03:56:40.868Z,4.67
2018-11-01T03:59:09.122Z,4.70
2018-11-01T04:01:36.870Z,4.77
2018-11-01T04:04:06.046Z,4.77
2018-11-01T04:06:33.848Z,4.70
2018-11-01T04:09:01.907Z,5.03
2018-11-01T04:11:30.149Z,4.70
2018-11-01T04:13:58.067Z,4.47
2018-11-01T04:16:25.939Z,4.93
2018-11-01T04:18:53.593Z,4.40
2018-11-01T04:21:21.608Z,4.50
2018-11-01T04:23:49.314Z,4.67
2018-11-01T04:26:16.981Z,4.97
2018-11-01T04:28:44.867Z,5.40
2018-11-01T04:31:12.597Z,5.13
2018-11-01T04:33:40.404Z,5.40
2018-11-01T04:36:08.044Z,4.73
2018-11-01T04:38:35.873Z,4.40
2018-11-01T04:41:03.666Z,4.10
2018-11-01T04:43:31.551Z,3.67
2018-11-01T04:45:59.232Z,3.97
2018-11-01T04:48:26.860Z,4.50
2018-11-01T04:50:54.635Z,4.37
2018-11-01T04:53:22.490Z,4.83
2018-11-01T04:55:50.147Z,4.30
2018-11-01T04:58:17.797Z,4.23
2018-11-01T05:00:45.595Z,4.10
2018-11-01T05:03:13.337Z,4.57
2018-11-01T05:05:41.139Z,4.60
2018-11-01T05:08:09.185Z,5.37
2018-11-01T05:10:36.883Z,5.50
2018-11-01T05:13:04.808Z,4.30
2018-11-01T05:15:32.577Z,4.40
2018-11-01T05:18:00.429Z,4.83
2018-11-01T05:20:28.232Z,4.83
2018-11-01T05:22:55.892Z,4.67
2018-11-01T05:25:23.640Z,4.77
2018-11-01T05:27:51.623Z,4.70
2018-11-01T05:30:19.784Z,4.87
2018-11-01T05:32:47.495Z,4.83
2018-11-01T05:35:16.295Z,4.60
2018-11-01T05:37:44.112Z,5.00
2018-11-01T05:40:12.673Z,4.53
2018-11-01T05:42:41.435Z,5.10
2018-11-01T05:45:09.440Z,4.03
2018-11-01T05:47:37.168Z,5.20
2018-11-01T05:50:05.906Z,5.30
2018-11-01T05:52:33.659Z,4.50
2018-11-01T05:55:01.356Z,4.20
2018-11-01T05:57:29.103Z,5.47
2018-11-01T05:59:58.152Z,4.50
2018-11-01T06:02:33.500Z,5.13
2018-11-01T06:05:01.705Z,5.13
2018-11-01T06:07:31.150Z,5.03
2018-11-01T06:09:58.826Z,4.10
2018-11-01T06:12:26.780Z,3.93
2018-11-01T06:14:54.505Z,4.67
2018-11-01T06:17:22.776Z,4.53
2018-11-01T06:19:51.115Z,6.00
2018-11-01T06:22:18.824Z,5.30
2018-11-01T06:24:46.563Z,5.60
2018-11-01T06:27:14.294Z,5.90
2018-11-01T06:29:42.321Z,4.57
2018-11-01T06:32:10.031Z,4.97
2018-11-01T06:34:42.708Z,4.70
2018-11-01T06:37:10.809Z,4.33
2018-11-01T06:39:38.712Z,4.20
2018-11-01T06:42:06.484Z,4.07
2018-11-01T06:44:34.387Z,4.67
2018-11-01T06:47:01.963Z,4.30
2018-11-01T06:49:29.613Z,5.10
2018-11-01T06:51:57.391Z,4.13
2018-11-01T06:54:25.142Z,5.17
2018-11-01T06:56:53.177Z,4.40
2018-11-01T06:59:21.086Z,4.70
2018-11-01T07:01:48.767Z,5.30
2018-11-01T07:04:16.488Z,8.00
2018-11-01T07:06:44.268Z,6.70
2018-11-01T07:09:13.319Z,5.70
2018-11-01T07:11:41.368Z,11.03
2018-11-01T07:14:09.787Z,7.53
2018-11-01T07:16:37.637Z,6.37
2018-11-01T07:19:07.756Z,5.13
2018-11-01T07:21:35.440Z,5.00
2018-11-01T07:24:03.895Z,53.93
2018-11-01T07:26:31.795Z,11.10
2018-11-01T07:28:59.465Z,6.30
2018-11-01T07:31:27.891Z,4.90
2018-11-01T07:33:55.680Z,4.57
2018-11-01T07:36:23.352Z,5.23
2018-11-01T07:38:51.470Z,4.93
2018-11-01T07:41:19.459Z,5.70
2018-11-01T07:43:47.548Z,5.57
2018-11-01T07:46:15.260Z,4.50
2018-11-01T07:51:53.561Z,5.47
2018-11-01T07:54:21.948Z,4.70
2018-11-01T07:56:49.722Z,5.97
2018-11-01T07:59:17.559Z,5.63
2018-11-01T08:01:45.335Z,5.27
2018-11-01T08:04:14.592Z,4.80
2018-11-01T08:06:43.268Z,4.70
2018-11-01T08:09:11.116Z,5.70
2018-11-01T08:11:39.427Z,4.70
2018-11-01T08:14:07.540Z,5.37
2018-11-01T08:16:35.328Z,5.27
2018-11-01T08:19:03.498Z,5.07
2018-11-01T08:21:32.440Z,5.00
2018-11-01T08:24:00.167Z,4.10
2018-11-01T08:26:28.302Z,5.23
2018-11-01T08:28:56.284Z,5.27
2018-11-01T08:31:24.737Z,5.73
2018-11-01T08:33:52.768Z,4.50
2018-11-01T08:36:20.898Z,4.47
2018-11-01T08:38:48.654Z,5.47
2018-11-01T08:41:16.774Z,6.80
2018-11-01T08:43:44.871Z,6.60
2018-11-01T08:46:13.283Z,7.77
2018-11-01T08:48:41.268Z,5.37
2018-11-01T08:51:09.082Z,6.30
2018-11-01T08:53:37.977Z,5.57
2018-11-01T08:56:05.839Z,5.50
2018-11-01T08:58:33.648Z,7.10
2018-11-01T09:01:01.372Z,5.40
2018-11-01T09:03:29.264Z,4.33
2018-11-01T09:05:57.147Z,5.13
2018-11-01T09:08:24.839Z,5.50
2018-11-01T09:10:53.091Z,5.33
2018-11-01T09:13:21.056Z,7.27
2018-11-01T09:15:48.772Z,7.00
2018-11-01T09:20:52.845Z,6.63
2018-11-01T09:23:20.789Z,7.63
2018-11-01T09:25:48.906Z,6.20
2018-11-01T09:28:16.627Z,5.73
2018-11-01T09:30:44.367Z,6.37
2018-11-01T09:33:12.176Z,10.90
2018-11-01T09:35:40.264Z,6.60
2018-11-01T09:38:07.976Z,5.17
2018-11-01T09:40:36.714Z,7.07
2018-11-01T09:43:04.888Z,5.57
2018-11-01T09:45:32.721Z,6.10
2018-11-01T09:48:00.517Z,5.73
2018-11-01T09:50:29.085Z,6.30
2018-11-01T09:52:56.802Z,4.77
2018-11-01T09:55:24.542Z,5.30
2018-11-01T09:57:52.380Z,5.40
2018-11-01T10:00:20.224Z,5.90
2018-11-01T10:02:49.490Z,7.03
2018-11-01T10:05:17.872Z,6.83
2018-11-01T10:07:45.905Z,6.63
2018-11-01T10:10:13.813Z,7.20
2018-11-01T10:12:41.882Z,6.37
2018-11-01T10:15:10.673Z,6.97
2018-11-01T10:17:39.800Z,7.57
2018-11-01T10:20:10.013Z,7.80
2018-11-01T10:22:38.278Z,6.70
2018-11-01T10:25:07.834Z,7.80
2018-11-01T10:27:36.293Z,6.80
2018-11-01T10:30:04.513Z,6.23
2018-11-01T10:32:32.815Z,6.23
2018-11-01T10:35:01.404Z,5.43
2018-11-01T10:37:29.254Z,5.93
2018-11-01T10:39:57.330Z,5.03
2018-11-01T10:42:25.359Z,5.97
2018-11-01T10:44:53.061Z,4.67
2018-11-01T10:47:21.174Z,5.00
2018-11-01T10:49:49.396Z,4.50
2018-11-01T10:52:17.352Z,4.80
2018-11-01T10:54:49.413Z,5.10
2018-11-01T10:57:18.159Z,3.83
2018-11-01T10:59:46.399Z,3.80
2018-11-01T11:02:19.471Z,4.27
2018-11-01T11:04:47.399Z,4.23
2018-11-01T11:07:15.190Z,4.67
2018-11-01T11:09:43.090Z,3.20
2018-11-01T11:12:11.041Z,3.93
2018-11-01T11:14:39.147Z,3.80
2018-11-01T11:17:06.892Z,4.07
2018-11-01T11:19:34.898Z,3.00
2018-11-01T11:22:02.706Z,3.27
2018-11-01T11:24:30.573Z,3.80
2018-11-01T11:26:58.324Z,3.00
2018-11-01T11:29:26.055Z,4.00
2018-11-01T11:31:53.883Z,3.80
2018-11-01T11:34:21.936Z,3.50
2018-11-01T11:36:49.803Z,4.13
2018-11-01T11:39:18.012Z,3.20
2018-11-01T11:41:45.590Z,3.67
2018-11-01T11:44:14.725Z,4.80
2018-11-01T11:46:42.443Z,3.60
2018-11-01T11:49:10.152Z,4.90
2018-11-01T11:51:37.941Z,4.80
2018-11-01T11:54:06.326Z,4.40
2018-11-01T11:56:34.054Z,4.13
2018-11-01T11:59:02.194Z,4.03
2018-11-01T12:01:29.923Z,4.27
2018-11-01T12:03:57.646Z,4.03
2018-11-01T12:06:25.700Z,4.47
2018-11-01T12:08:54.150Z,3.30
2018-11-01T12:11:22.229Z,4.40
2018-11-01T12:13:50.518Z,5.07
2018-11-01T12:16:18.287Z,5.30
2018-11-01T12:18:46.123Z,5.33
2018-11-01T12:21:13.909Z,4.50
2018-11-01T12:23:41.612Z,4.60
2018-11-01T12:26:09.484Z,5.17
2018-11-01T12:28:37.550Z,4.63
2018-11-01T12:31:05.472Z,5.67
2018-11-01T12:33:33.331Z,5.13
2018-11-01T12:36:01.120Z,6.70
2018-11-01T12:38:28.964Z,5.13
2018-11-01T12:40:57.378Z,5.47
2018-11-01T12:43:25.191Z,5.70
2018-11-01T12:45:52.931Z,5.70
2018-11-01T12:48:20.660Z,5.97
2018-11-01T12:50:48.678Z,5.50
2018-11-01T12:53:21.119Z,6.10
2018-11-01T12:55:51.844Z,5.30
2018-11-01T12:58:20.303Z,5.10
2018-11-01T13:00:48.396Z,5.13
2018-11-01T13:03:16.197Z,6.10
2018-11-01T13:05:44.352Z,4.43
2018-11-01T13:08:12.063Z,6.00
2018-11-01T13:10:40.439Z,5.60
2018-11-01T13:13:08.407Z,6.17
2018-11-01T13:15:36.207Z,5.73
2018-11-01T13:18:04.402Z,4.63
2018-11-01T13:20:32.568Z,4.30
2018-11-01T13:23:00.251Z,5.67
2018-11-01T13:25:28.034Z,4.80
2018-11-01T13:27:56.499Z,4.53
2018-11-01T13:30:24.393Z,5.07
2018-11-01T13:32:52.281Z,4.10
2018-11-01T13:35:20.013Z,3.83
2018-11-01T13:37:48.095Z,2.60
2018-11-01T13:40:16.170Z,2.40
2018-11-01T13:42:43.640Z,2.57
2018-11-01T13:45:11.367Z,1.93
2018-11-01T13:47:39.165Z,2.77
2018-11-01T13:50:08.394Z,2.23
2018-11-01T13:52:37.635Z,2.30
2018-11-01T13:55:07.155Z,2.50
2018-11-01T13:57:35.115Z,2.20
2018-11-01T14:00:03.028Z,2.00
2018-11-01T14:02:36.849Z,2.23
2018-11-01T14:05:06.994Z,1.87
2018-11-01T14:07:35.236Z,2.57
2018-11-01T14:10:05.252Z,2.07
2018-11-01T14:12:33.037Z,2.60
2018-11-01T14:15:01.331Z,2.70
2018-11-01T14:17:28.950Z,2.90
2018-11-01T14:19:57.118Z,2.30
2018-11-01T14:22:24.984Z,2.70
2018-11-01T14:24:54.662Z,2.77
2018-11-01T14:27:22.479Z,2.60
2018-11-01T14:29:50.229Z,1.70
2018-11-01T14:32:18.168Z,1.90
2018-11-01T14:34:45.909Z,2.07
2018-11-01T14:37:13.714Z,1.80
2018-11-01T14:39:41.530Z,2.13
2018-11-01T14:42:09.535Z,1.77
2018-11-01T14:44:37.699Z,2.10
2018-11-01T14:47:06.337Z,2.33
2018-11-01T14:49:34.425Z,2.23
2018-11-01T14:52:02.711Z,2.00
2018-11-01T14:54:31.601Z,1.90
2018-11-01T14:56:59.238Z,2.30
2018-11-01T14:59:27.263Z,2.70
2018-11-01T15:01:54.031Z,3.17
2018-11-01T15:04:21.846Z,2.00
2018-11-01T15:06:49.807Z,2.20
2018-11-01T15:09:17.654Z,2.40
2018-11-01T15:11:45.363Z,2.10
2018-11-01T15:14:13.798Z,2.57
2018-11-01T15:16:41.713Z,2.77
2018-11-01T15:19:10.248Z,2.90
2018-11-01T15:21:38.356Z,2.80
2018-11-01T15:24:07.994Z,2.57
2018-11-01T15:26:35.810Z,2.37
2018-11-01T15:29:04.172Z,2.20
2018-11-01T15:31:31.977Z,2.93
2018-11-01T15:34:00.482Z,2.90
2018-11-01T15:36:28.403Z,2.40
2018-11-01T15:38:56.216Z,3.10
2018-11-01T15:41:24.036Z,2.93
2018-11-01T15:43:51.747Z,3.23
2018-11-01T15:46:19.656Z,3.63
2018-11-01T15:48:48.131Z,3.60
2018-11-01T15:51:16.121Z,3.77
2018-11-01T15:53:44.089Z,3.77
2018-11-01T15:56:12.249Z,3.90
2018-11-01T15:58:40.412Z,3.30
2018-11-01T16:01:08.162Z,3.77
2018-11-01T16:03:36.156Z,3.63
2018-11-01T16:06:03.824Z,3.70
2018-11-01T16:08:31.816Z,3.63
2018-11-01T16:11:00.006Z,3.90
2018-11-01T16:13:27.818Z,4.00
2018-11-01T16:15:55.648Z,4.27
2018-11-01T16:18:23.761Z,7.13
2018-11-01T16:20:52.033Z,4.87
2018-11-01T16:23:20.277Z,5.83
2018-11-01T16:25:47.955Z,6.80
2018-11-01T16:28:16.149Z,16.40
2018-11-01T16:30:43.929Z,7.13
2018-11-01T16:33:12.440Z,9.87
2018-11-01T16:35:40.286Z,6.93
2018-11-01T16:38:08.109Z,15.17
2018-11-01T16:40:36.595Z,9.90
2018-11-01T16:43:05.004Z,11.60
2018-11-01T16:45:34.346Z,7.37
2018-11-01T16:48:02.181Z,10.63
2018-11-01T16:50:30.917Z,10.30
2018-11-01T16:52:58.903Z,5.20
2018-11-01T16:55:27.657Z,4.10
2018-11-01T16:57:55.793Z,5.10
2018-11-01T17:00:23.918Z,5.20
2018-11-01T17:02:52.096Z,5.00
2018-11-01T17:05:19.952Z,4.50
2018-11-01T17:07:47.785Z,4.67
2018-11-01T17:10:19.136Z,5.20
2018-11-01T17:12:47.061Z,4.90
2018-11-01T17:15:15.222Z,5.97
2018-11-01T17:17:43.993Z,5.37
2018-11-01T17:20:12.318Z,6.60
2018-11-01T17:22:40.504Z,5.80
2018-11-01T17:25:08.412Z,8.83
2018-11-01T17:27:36.321Z,8.17
2018-11-01T17:30:06.020Z,9.17
2018-11-01T17:32:38.331Z,8.20
2018-11-01T17:35:06.826Z,7.90
2018-11-01T17:37:34.645Z,8.20
2018-11-01T17:40:02.837Z,7.97
2018-11-01T17:42:30.704Z,8.77
2018-11-01T17:44:58.880Z,8.13
2018-11-01T17:47:27.048Z,7.37
2018-11-01T17:49:54.769Z,6.80
2018-11-01T17:52:22.604Z,8.07
2018-11-01T17:54:50.547Z,7.47
2018-11-01T17:57:19.631Z,10.50
2018-11-01T17:59:47.452Z,11.87
2018-11-01T18:02:15.785Z,10.20
2018-11-01T18:04:43.748Z,9.27
2018-11-01T18:07:11.739Z,8.50
2018-11-01T18:09:39.706Z,8.80
2018-11-01T18:12:07.955Z,11.53
2018-11-01T18:14:36.469Z,11.07
2018-11-01T18:17:08.232Z,11.90
2018-11-01T18:19:36.906Z,10.90
2018-11-01T18:22:05.542Z,11.90
2018-11-01T18:24:33.553Z,11.73
2018-11-01T18:27:01.723Z,10.73
2018-11-01T18:29:29.448Z,10.13
2018-11-01T18:32:01.378Z,13.77
2018-11-01T18:34:29.690Z,10.93
2018-11-01T18:36:58.223Z,11.80
2018-11-01T18:39:26.292Z,8.87
2018-11-01T18:41:54.147Z,9.90
2018-11-01T18:44:21.926Z,9.20
2018-11-01T18:46:49.789Z,9.53
2018-11-01T18:49:18.084Z,11.63
2018-11-01T18:51:45.828Z,12.53
2018-11-01T18:54:14.249Z,12.07
2018-11-01T18:56:42.014Z,12.47
2018-11-01T18:59:10.186Z,10.83
2018-11-01T19:01:38.082Z,10.70
2018-11-01T19:04:06.729Z,10.50
2018-11-01T19:06:34.700Z,11.13
2018-11-01T19:09:04.405Z,9.70
2018-11-01T19:11:32.150Z,11.13
2018-11-01T19:14:00.016Z,11.20
2018-11-01T19:16:27.754Z,13.83
2018-11-01T19:18:56.148Z,14.20
2018-11-01T19:21:24.955Z,14.67
2018-11-01T19:23:53.341Z,11.93
2018-11-01T19:26:21.212Z,11.27
2018-11-01T19:28:49.256Z,10.73
2018-11-01T19:31:17.057Z,10.77
2018-11-01T19:33:44.851Z,11.40
2018-11-01T19:36:12.708Z,10.50
2018-11-01T19:38:40.860Z,26.53
2018-11-01T19:41:08.870Z,13.40
2018-11-01T19:43:36.679Z,11.17
2018-11-01T19:46:04.441Z,9.80
2018-11-01T19:48:32.365Z,9.10
2018-11-01T19:51:00.281Z,9.60
2018-11-01T19:53:28.337Z,7.33
2018-11-01T19:55:56.209Z,7.20
2018-11-01T19:58:24.276Z,7.07
2018-11-01T20:00:52.198Z,6.10
2018-11-01T20:03:21.187Z,6.50
2018-11-01T20:05:48.933Z,7.10
2018-11-01T20:08:16.749Z,7.27
2018-11-01T20:10:45.242Z,7.00
2018-11-01T20:13:13.103Z,7.50
2018-11-01T20:15:40.939Z,7.60
2018-11-01T20:18:08.711Z,7.70
2018-11-01T20:20:36.583Z,8.40
2018-11-01T20:23:04.719Z,8.97
2018-11-01T20:25:32.890Z,11.00
2018-11-01T20:28:00.564Z,13.27
2018-11-01T20:30:28.521Z,9.50
2018-11-01T20:32:56.387Z,9.90
2018-11-01T20:35:25.237Z,8.40
2018-11-01T20:37:54.230Z,9.43
2018-11-01T20:40:22.770Z,9.57
2018-11-01T20:42:50.605Z,9.93
2018-11-01T20:45:18.497Z,10.00
2018-11-01T20:47:46.381Z,9.17
2018-11-01T20:50:14.549Z,9.50
2018-11-01T20:52:42.398Z,10.33
2018-11-01T20:55:10.355Z,9.07
2018-11-01T20:57:38.679Z,9.17
2018-11-01T21:00:08.822Z,10.10
2018-11-01T21:02:36.906Z,9.17
2018-11-01T21:05:04.995Z,9.57
2018-11-01T21:07:32.964Z,10.30
2018-11-01T21:10:00.908Z,9.23
2018-11-01T21:12:28.845Z,9.27
2018-11-01T21:14:56.669Z,8.97
2018-11-01T21:17:24.532Z,10.67
2018-11-01T21:19:52.395Z,10.37
2018-11-01T21:22:20.256Z,8.63
2018-11-01T21:24:48.022Z,6.27
2018-11-01T21:27:15.963Z,4.03
2018-11-01T21:29:43.872Z,5.37
2018-11-01T21:32:11.835Z,6.13
2018-11-01T21:34:40.628Z,3.93
2018-11-01T21:37:08.396Z,4.47
2018-11-01T21:39:36.359Z,4.80
2018-11-01T21:42:04.502Z,5.20
2018-11-01T21:44:32.398Z,4.83
2018-11-01T21:47:00.608Z,3.70
2018-11-01T21:49:28.580Z,3.97
2018-11-01T21:51:56.556Z,2.87
2018-11-01T21:54:24.527Z,3.10
2018-11-01T21:56:52.589Z,2.57
2018-11-01T21:59:20.706Z,4.03
2018-11-01T22:01:48.602Z,2.90
2018-11-01T22:04:17.488Z,2.37
2018-11-01T22:06:45.621Z,2.37
2018-11-01T22:09:13.675Z,2.40
2018-11-01T22:11:41.746Z,1.40
2018-11-01T22:14:09.658Z,1.43
2018-11-01T22:16:37.583Z,1.47
2018-11-01T22:19:05.517Z,1.37
2018-11-01T22:21:33.356Z,0.80
2018-11-01T22:24:01.356Z,0.80
2018-11-01T22:26:30.127Z,1.37
2018-11-01T22:28:58.326Z,1.57
2018-11-01T22:31:26.068Z,1.50
2018-11-01T22:33:53.911Z,1.93
2018-11-01T22:36:21.984Z,2.07
2018-11-01T22:38:50.024Z,1.53
2018-11-01T22:41:18.294Z,1.83
2018-11-01T22:43:46.543Z,1.90
2018-11-01T22:46:14.255Z,2.00
2018-11-01T22:48:41.879Z,1.20
2018-11-01T22:51:10.121Z,0.83
2018-11-01T22:53:37.904Z,0.70
2018-11-01T22:56:06.329Z,1.30
2018-11-01T22:58:34.358Z,0.50
2018-11-01T23:01:02.188Z,0.80
2018-11-01T23:03:30.065Z,1.50
2018-11-01T23:05:57.864Z,1.40
2018-11-01T23:08:25.623Z,1.03
2018-11-01T23:10:53.460Z,1.30
2018-11-01T23:13:21.180Z,1.00
2018-11-01T23:15:49.010Z,0.70
2018-11-01T23:18:16.871Z,1.13
2018-11-01T23:20:44.608Z,0.60
2018-11-01T23:23:12.644Z,0.80
2018-11-01T23:25:40.330Z,0.83
2018-11-01T23:28:08.120Z,0.70
2018-11-01T23:30:35.874Z,0.77
2018-11-01T23:33:03.939Z,0.70
2018-11-01T23:35:31.930Z,0.87
2018-11-01T23:38:05.387Z,0.63
2018-11-01T23:40:39.886Z,0.70
2018-11-01T23:43:13.228Z,0.67
2018-11-01T23:45:46.632Z,0.83
2018-11-01T23:48:13.780Z,1.00
2018-11-01T23:50:46.589Z,2.30
2018-11-01T23:53:21.703Z,1.40
2018-11-01T23:55:50.108Z,2.27
2018-11-01T23:58:17.979Z,1.50
